Time;durP1;ratioP1;P1;durP2;ratioP2;P2;SDS_P1;SDS_P2;PMS_P1;PMS_P2;Temp;Humidity;BMP_temperature;BMP_pressure;BME280_temperature;BME280_humidity;BME280_pressure;Samples;Min_cycle;Max_cycle;Signal;HPM_P1;HPM_P2
2022/01/30 00:01:45;;;;;;;60.38;7.32;;;;;;;5.17;100.00;101083.59;4886318;29;20047;-75
2022/01/30 00:04:11;;;;;;;50.10;7.55;;;;;;;5.11;100.00;101088.41;4906079;29;20123;-75
2022/01/30 00:06:37;;;;;;;54.28;7.18;;;;;;;5.07;100.00;101103.38;4903296;29;20175;-76
2022/01/30 00:09:05;;;;;;;58.15;7.15;;;;;;;5.12;100.00;101108.25;4906984;29;20509;-75
2022/01/30 00:11:35;;;;;;;61.25;7.60;;;;;;;4.91;100.00;101085.31;4890547;29;20043;-76
2022/01/30 00:14:02;;;;;;;59.55;7.40;;;;;;;5.00;100.00;101097.72;4904604;29;20040;-77
2022/01/30 00:16:32;;;;;;;55.72;7.45;;;;;;;4.94;100.00;101142.31;4886862;29;20032;-76
2022/01/30 00:19:21;;;;;;;63.92;7.60;;;;;;;4.55;100.00;101112.78;4880354;29;20040;-75
2022/01/30 00:21:51;;;;;;;47.90;7.20;;;;;;;4.39;100.00;101114.69;4879106;29;20048;-75
2022/01/30 00:24:28;;;;;;;51.97;6.25;;;;;;;4.32;100.00;101114.25;4914078;29;20036;-77
2022/01/30 00:26:53;;;;;;;54.20;7.10;;;;;;;4.28;100.00;101124.00;4894758;29;20044;-78
2022/01/30 00:29:19;;;;;;;48.10;6.90;;;;;;;4.34;100.00;101127.97;4879072;29;20112;-75
2022/01/30 00:31:45;;;;;;;55.85;6.88;;;;;;;4.35;100.00;101126.19;4888866;29;20036;-75
2022/01/30 00:34:11;;;;;;;56.65;8.15;;;;;;;4.27;100.00;101117.13;4880561;29;20046;-76
2022/01/30 00:36:36;;;;;;;55.38;7.57;;;;;;;4.26;100.00;101118.06;4906479;29;20562;-75
2022/01/30 00:39:02;;;;;;;53.75;7.18;;;;;;;4.20;100.00;101076.06;4895224;29;20036;-76
2022/01/30 00:41:28;;;;;;;66.65;7.72;;;;;;;4.31;100.00;101071.03;4903375;29;20060;-76
2022/01/30 00:43:54;;;;;;;56.38;7.50;;;;;;;4.40;100.00;101106.78;4916180;29;20040;-75
2022/01/30 00:46:19;;;;;;;52.60;7.15;;;;;;;4.46;100.00;101097.78;4893057;29;20055;-75
2022/01/30 00:48:45;;;;;;;64.30;8.48;;;;;;;4.46;100.00;101115.97;4890058;29;20039;-75
2022/01/30 00:51:11;;;;;;;46.78;6.63;;;;;;;4.58;100.00;101109.16;4887845;29;20488;-75
2022/01/30 00:53:36;;;;;;;58.38;7.57;;;;;;;4.36;100.00;101133.06;4886509;29;20060;-75
2022/01/30 00:56:03;;;;;;;49.95;7.63;;;;;;;4.22;100.00;101106.22;4901156;29;20041;-77
2022/01/30 00:58:29;;;;;;;56.33;8.68;;;;;;;4.26;100.00;101094.69;4911879;29;20124;-75
2022/01/30 01:00:54;;;;;;;62.00;7.63;;;;;;;4.34;100.00;101102.00;4902963;29;20058;-75
2022/01/30 01:03:20;;;;;;;64.57;8.68;;;;;;;4.34;100.00;101102.00;4897460;29;20045;-75
2022/01/30 01:05:46;;;;;;;66.22;9.40;;;;;;;4.45;100.00;101106.53;4882788;29;20036;-76
2022/01/30 01:08:18;;;;;;;63.88;8.20;;;;;;;4.42;100.00;101093.72;4884483;29;20071;-76
2022/01/30 01:10:52;;;;;;;67.05;9.27;;;;;;;4.32;100.00;101144.59;4888786;29;20075;-76
2022/01/30 01:13:44;;;;;;;53.70;6.93;;;;;;;4.04;100.00;101143.69;4905266;29;20032;-75
2022/01/30 01:24:05;;;;;;;42.13;5.93;;;;;;;3.55;100.00;101123.31;4882862;29;20036;-75
2022/01/30 01:26:32;;;;;;;37.00;5.25;;;;;;;3.51;100.00;101133.88;4896476;29;20036;-76
2022/01/30 01:28:58;;;;;;;47.45;6.68;;;;;;;3.56;100.00;101128.44;4886924;29;20398;-76
2022/01/30 01:31:24;;;;;;;53.67;7.40;;;;;;;3.72;100.00;101136.09;4874533;29;20047;-76
2022/01/30 01:34:24;;;;;;;44.30;6.05;;;;;;;3.80;100.00;101113.13;4895922;29;20037;-76
2022/01/30 01:36:50;;;;;;;50.17;6.60;;;;;;;3.94;100.00;101108.84;4882796;29;20040;-76
2022/01/30 01:39:16;;;;;;;52.63;6.65;;;;;;;4.20;100.00;101115.00;4884989;29;20063;-76
2022/01/30 01:41:41;;;;;;;36.53;5.72;;;;;;;4.18;100.00;101117.72;4892697;29;20033;-75
2022/01/30 01:44:16;;;;;;;33.00;5.13;;;;;;;4.20;100.00;101123.66;4898734;29;20824;-79
2022/01/30 01:46:43;;;;;;;47.25;6.28;;;;;;;4.18;100.00;101127.25;4898886;29;20040;-76
2022/01/30 01:49:13;;;;;;;43.75;5.97;;;;;;;4.08;100.00;101130.41;4895321;29;20412;-75
2022/01/30 01:51:46;;;;;;;35.22;5.75;;;;;;;4.09;100.00;101141.66;4892942;29;20500;-75
2022/01/30 01:54:12;;;;;;;41.08;5.65;;;;;;;4.24;100.00;101099.16;4892211;29;20121;-75
2022/01/30 01:56:38;;;;;;;52.05;6.20;;;;;;;4.28;100.00;101098.03;4896743;29;20258;-77
2022/01/30 01:59:12;;;;;;;38.50;6.18;;;;;;;4.26;100.00;101135.41;4898345;29;20036;-76
2022/01/30 02:01:52;;;;;;;52.30;6.50;;;;;;;4.28;100.00;101133.56;4897554;29;20078;-77
2022/01/30 02:04:20;;;;;;;44.20;6.18;;;;;;;4.31;100.00;101120.38;4877023;29;20032;-76
2022/01/30 02:06:49;;;;;;;37.92;5.28;;;;;;;4.22;100.00;101121.78;4892796;29;20043;-76
2022/01/30 02:09:14;;;;;;;47.70;7.35;;;;;;;4.17;100.00;101128.19;4900758;29;20505;-77
2022/01/30 02:11:44;;;;;;;57.75;6.63;;;;;;;4.26;100.00;101125.88;4911077;29;20138;-76
2022/01/30 02:25:24;;;;;;;44.47;6.53;;;;;;;4.12;100.00;101166.59;4916193;29;20162;-75
2022/01/30 02:27:56;;;;;;;46.45;7.45;;;;;;;4.01;100.00;101157.72;4898515;29;20039;-76
2022/01/30 02:30:21;;;;;;;54.92;7.57;;;;;;;3.99;100.00;101167.31;4902817;29;20034;-76
2022/01/30 02:32:48;;;;;;;64.50;8.40;;;;;;;4.03;100.00;101155.00;4899731;29;20041;-77
2022/01/30 02:35:14;;;;;;;59.72;7.25;;;;;;;4.00;100.00;101145.66;4882291;29;20079;-76
2022/01/30 02:37:40;;;;;;;64.55;8.13;;;;;;;4.12;100.00;101151.84;4901901;29;20035;-76
2022/01/30 02:40:10;;;;;;;51.08;6.60;;;;;;;4.14;100.00;101136.16;4877941;29;20040;-75
2022/01/30 02:42:40;;;;;;;51.78;7.47;;;;;;;4.06;100.00;101134.88;4902959;29;20040;-76
2022/01/30 02:45:09;;;;;;;55.67;7.63;;;;;;;4.13;100.00;101157.88;4878685;29;20520;-77
2022/01/30 02:50:16;;;;;;;57.25;7.35;;;;;;;3.96;100.00;101151.13;4886451;29;20104;-77
2022/01/30 02:52:44;;;;;;;51.33;7.25;;;;;;;4.09;100.00;101144.25;4898010;29;20078;-76
2022/01/30 02:55:12;;;;;;;42.40;5.38;;;;;;;3.95;100.00;101139.06;4910380;29;20407;-77
2022/01/30 02:57:38;;;;;;;45.50;6.05;;;;;;;3.84;100.00;101139.72;4879304;29;20036;-76
2022/01/30 03:00:09;;;;;;;38.28;5.93;;;;;;;4.00;97.02;101150.00;4897062;29;20107;-77
2022/01/30 03:02:35;;;;;;;43.45;4.68;;;;;;;4.14;96.56;101144.78;4899978;29;20048;-78
2022/01/30 03:05:00;;;;;;;46.67;5.95;;;;;;;3.98;98.38;101134.53;4898483;29;20485;-75
2022/01/30 03:07:26;;;;;;;52.58;7.88;;;;;;;3.98;99.43;101147.50;4883534;29;20497;-76
2022/01/30 03:09:55;;;;;;;42.85;7.32;;;;;;;3.90;100.00;101157.53;4896454;29;20041;-76
2022/01/30 03:12:22;;;;;;;59.55;7.13;;;;;;;3.84;100.00;101142.31;4902993;29;20088;-77
2022/01/30 03:14:47;;;;;;;50.65;7.43;;;;;;;3.92;100.00;101145.28;4903442;29;20044;-76
2022/01/30 03:17:13;;;;;;;62.38;7.47;;;;;;;4.01;100.00;101133.50;4902271;29;20112;-76
2022/01/30 03:19:39;;;;;;;53.08;7.47;;;;;;;4.14;100.00;101128.38;4893620;29;20146;-76
2022/01/30 03:22:04;;;;;;;55.78;7.25;;;;;;;4.12;100.00;101164.81;4884569;29;20040;-76
2022/01/30 03:24:35;;;;;;;51.05;6.68;;;;;;;4.11;99.24;101150.19;4903767;29;20045;-76
2022/01/30 03:27:12;;;;;;;53.42;7.35;;;;;;;4.12;96.15;101127.66;4882161;29;20047;-76
2022/01/30 03:30:02;;;;;;;54.33;6.85;;;;;;;3.95;99.65;101147.69;4861694;29;20043;-77
2022/01/30 03:32:46;;;;;;;50.25;7.20;;;;;;;4.08;95.47;101161.56;4913744;29;20060;-75
2022/01/30 03:35:12;;;;;;;47.03;6.38;;;;;;;4.05;96.42;101163.53;4915971;29;20060;-77
2022/01/30 03:37:37;;;;;;;43.75;5.95;;;;;;;3.84;97.97;101163.94;4900834;29;20040;-76
2022/01/30 03:40:04;;;;;;;56.90;8.10;;;;;;;3.86;98.48;101185.44;4900794;29;20063;-76
2022/01/30 03:42:30;;;;;;;55.17;7.50;;;;;;;3.82;98.81;101172.72;4886098;29;20040;-77
2022/01/30 03:44:55;;;;;;;64.68;7.90;;;;;;;3.91;97.79;101203.31;4888901;29;20032;-75
2022/01/30 03:47:24;;;;;;;47.38;6.72;;;;;;;3.96;98.09;101183.09;4902538;29;20040;-75
2022/01/30 03:49:51;;;;;;;56.35;7.35;;;;;;;3.94;98.58;101204.88;4884829;29;20044;-76
2022/01/30 03:52:17;;;;;;;40.67;6.47;;;;;;;4.03;97.77;101199.97;4878660;29;20032;-76
2022/01/30 03:54:43;;;;;;;53.47;7.63;;;;;;;4.06;97.31;101204.97;4895219;29;20031;-77
2022/01/30 03:57:09;;;;;;;55.22;7.60;;;;;;;4.14;96.53;101206.28;4903952;29;20083;-76
2022/01/30 03:59:36;;;;;;;48.30;7.38;;;;;;;4.23;96.27;101192.72;4889333;29;20059;-77
2022/01/30 04:02:03;;;;;;;47.63;6.72;;;;;;;4.12;96.21;101202.94;4906694;29;20481;-77
2022/01/30 04:04:31;;;;;;;45.42;6.53;;;;;;;4.13;96.18;101215.84;4891357;29;20044;-77
2022/01/30 04:06:57;;;;;;;56.88;8.48;;;;;;;3.99;96.83;101228.78;4890580;29;20132;-77
2022/01/30 04:09:43;;;;;;;41.17;5.32;;;;;;;4.12;93.24;101195.97;4892337;29;20139;-76
2022/01/30 04:12:17;;;;;;;38.97;5.80;;;;;;;3.98;94.00;101219.34;4888518;29;20028;-76
2022/01/30 04:15:01;;;;;;;46.40;6.03;;;;;;;3.95;94.51;101220.34;4897412;29;20134;-76
2022/01/30 04:17:48;;;;;;;40.30;5.57;;;;;;;3.95;95.04;101196.16;4878943;29;20457;-76
2022/01/30 04:20:43;;;;;;;35.75;4.97;;;;;;;4.00;95.92;101215.72;4880595;29;20036;-75
2022/01/30 04:23:11;;;;;;;48.00;6.00;;;;;;;3.92;96.16;101223.16;4906699;29;20032;-76
2022/01/30 04:25:52;;;;;;;43.00;6.30;;;;;;;3.94;97.50;101225.63;4889220;29;20041;-76
2022/01/30 04:28:44;;;;;;;51.63;6.50;;;;;;;3.90;98.38;101225.84;4895835;29;20056;-76
2022/01/30 04:31:39;;;;;;;50.05;6.93;;;;;;;4.08;95.30;101247.25;4883741;29;20040;-76
2022/01/30 04:34:25;;;;;;;44.65;6.18;;;;;;;4.09;97.07;101261.09;4904796;29;20572;-77
2022/01/30 04:37:15;;;;;;;47.15;8.38;;;;;;;4.13;97.02;101244.41;4901663;29;20032;-76
2022/01/30 04:40:39;;;;;;;48.17;7.57;;;;;;;4.18;95.18;101182.63;4897909;29;20028;-76
2022/01/30 04:53:06;;;;;;;49.42;6.60;;;;;;;4.33;95.80;101265.72;4920705;29;20040;-76
2022/01/30 04:56:38;;;;;;;48.80;7.30;;;;;;;4.39;94.22;101252.34;4893729;29;20107;-76
2022/01/30 04:59:19;;;;;;;56.40;7.18;;;;;;;4.50;92.46;101275.91;4919156;29;20036;-77
2022/01/30 05:02:13;;;;;;;53.60;7.88;;;;;;;4.46;95.28;101279.63;4886313;29;20063;-75
2022/01/30 05:05:24;;;;;;;53.92;8.43;;;;;;;4.46;95.61;101298.66;4877820;29;20112;-76
2022/01/30 05:08:06;;;;;;;61.00;10.07;;;;;;;4.41;97.34;101298.09;4893291;29;20033;-76
2022/01/30 05:10:53;;;;;;;55.35;9.38;;;;;;;4.38;96.22;101298.28;4882679;29;20051;-74
2022/01/30 05:13:44;;;;;;;62.90;9.00;;;;;;;4.26;98.05;101301.63;4900001;29;20071;-74
2022/01/30 05:16:23;;;;;;;52.03;7.55;;;;;;;4.35;96.39;101295.03;4886947;29;20092;-75
2022/01/30 05:19:14;;;;;;;61.00;9.20;;;;;;;4.42;97.32;101284.16;4891620;29;20134;-74
2022/01/30 05:21:53;;;;;;;68.13;9.45;;;;;;;4.48;96.60;101295.94;4915059;29;20088;-75
2022/01/30 05:24:36;;;;;;;63.42;9.63;;;;;;;4.48;95.35;101308.94;4889787;29;20139;-73
2022/01/30 05:27:07;;;;;;;61.22;9.30;;;;;;;4.52;95.32;101302.66;4883740;29;20036;-76
2022/01/30 05:29:41;;;;;;;63.63;9.05;;;;;;;4.56;94.19;101301.53;4898831;29;20044;-76
2022/01/30 05:32:34;;;;;;;54.85;7.75;;;;;;;4.45;94.41;101296.97;4910017;29;20099;-75
2022/01/30 05:35:32;;;;;;;50.70;7.43;;;;;;;4.54;92.51;101305.13;4903973;29;20052;-75
2022/01/30 05:38:18;;;;;;;54.58;6.95;;;;;;;4.47;94.00;101295.13;4901158;29;20103;-76
2022/01/30 05:41:13;;;;;;;50.70;7.97;;;;;;;4.36;93.36;101296.69;4892914;29;21078;-75
2022/01/30 05:44:09;;;;;;;49.40;7.35;;;;;;;4.27;94.86;101296.31;4875831;29;20419;-76
2022/01/30 05:46:54;;;;;;;52.67;7.78;;;;;;;4.21;95.09;101320.06;4898852;29;20051;-74
2022/01/30 05:49:38;;;;;;;52.78;7.47;;;;;;;4.21;94.91;101259.50;4898630;29;20044;-74
2022/01/30 05:52:15;;;;;;;54.03;7.93;;;;;;;4.26;95.26;101314.59;4878549;29;20036;-75
2022/01/30 05:55:02;;;;;;;57.17;7.97;;;;;;;4.29;95.31;101325.66;4901335;29;20048;-75
2022/01/30 05:57:28;;;;;;;54.88;8.27;;;;;;;4.27;94.73;101311.06;4900392;29;20135;-74
2022/01/30 05:59:55;;;;;;;53.30;6.72;;;;;;;4.34;95.13;101307.19;4899795;29;20050;-74
2022/01/30 06:02:56;;;;;;;57.22;7.82;;;;;;;4.31;96.16;101309.13;4916505;29;20542;-75
2022/01/30 06:05:24;;;;;;;52.85;7.95;;;;;;;4.23;94.73;101294.00;4898090;29;20092;-75
2022/01/30 06:08:08;;;;;;;54.45;7.18;;;;;;;4.18;96.38;101278.72;4916615;29;20485;-74
2022/01/30 06:10:34;;;;;;;57.15;6.78;;;;;;;4.22;94.67;101306.16;4917293;29;20036;-74
2022/01/30 06:13:00;;;;;;;48.92;7.43;;;;;;;4.14;96.76;101307.53;4904348;29;20511;-74
2022/01/30 06:15:26;;;;;;;61.67;8.45;;;;;;;4.05;98.10;101308.91;4888057;29;20427;-74
2022/01/30 06:18:01;;;;;;;49.00;7.60;;;;;;;4.06;97.98;101315.78;4883864;29;20128;-75
2022/01/30 06:20:45;;;;;;;55.80;7.22;;;;;;;3.96;100.00;101351.00;4904969;29;20056;-74
2022/01/30 06:23:30;;;;;;;55.97;7.22;;;;;;;4.02;99.84;101343.66;4919114;29;20040;-75
2022/01/30 06:26:14;;;;;;;61.78;7.40;;;;;;;3.97;100.00;101324.94;4920387;29;20040;-74
2022/01/30 06:28:58;;;;;;;43.13;6.25;;;;;;;3.95;100.00;101337.16;4905227;29;20047;-75
2022/01/30 06:31:42;;;;;;;52.80;6.35;;;;;;;3.95;100.00;101377.88;4916784;29;20404;-75
2022/01/30 06:34:28;;;;;;;59.25;6.82;;;;;;;3.96;100.00;101370.00;4903692;29;20040;-75
2022/01/30 06:37:13;;;;;;;48.55;6.28;;;;;;;3.98;100.00;101370.75;4901070;29;20052;-74
2022/01/30 06:39:49;;;;;;;56.83;7.18;;;;;;;3.92;100.00;101384.06;4902399;29;20035;-74
2022/01/30 06:42:47;;;;;;;64.25;8.40;;;;;;;3.92;100.00;101384.06;4910454;29;20052;-74
2022/01/30 06:45:34;;;;;;;54.92;7.68;;;;;;;4.13;100.00;101391.56;4886001;29;20044;-75
2022/01/30 06:48:35;;;;;;;72.93;9.05;;;;;;;4.13;100.00;101405.38;4922065;29;20508;-75
2022/01/30 06:51:19;;;;;;;55.22;9.05;;;;;;;4.18;100.00;101405.94;4904544;29;20040;-75
2022/01/30 06:54:08;;;;;;;52.45;7.65;;;;;;;4.18;100.00;101400.75;4891693;29;20058;-75
2022/01/30 06:56:52;;;;;;;50.50;8.02;;;;;;;4.15;100.00;101411.31;4918250;29;20040;-75
2022/01/30 06:59:36;;;;;;;60.90;8.13;;;;;;;4.13;100.00;101430.50;4917661;29;20051;-75
2022/01/30 07:02:20;;;;;;;61.90;8.25;;;;;;;4.20;99.67;101430.06;4909400;29;20043;-76
2022/01/30 07:05:14;;;;;;;53.50;7.40;;;;;;;4.12;100.00;101439.19;4903470;29;20075;-75
2022/01/30 07:08:00;;;;;;;46.28;7.22;;;;;;;4.08;100.00;101426.38;4913729;29;20131;-75
2022/01/30 07:10:26;;;;;;;65.85;8.27;;;;;;;4.03;100.00;101463.91;4903834;29;20500;-74
2022/01/30 07:12:52;;;;;;;48.97;7.22;;;;;;;3.94;100.00;101459.25;4903152;29;20069;-75
2022/01/30 07:15:17;;;;;;;54.28;7.95;;;;;;;4.04;100.00;101456.03;4910423;29;20040;-75
2022/01/30 07:17:43;;;;;;;61.42;8.20;;;;;;;4.01;100.00;101479.59;4921284;29;20036;-74
2022/01/30 07:20:10;;;;;;;56.78;7.88;;;;;;;3.89;100.00;101464.69;4889323;29;20119;-76
2022/01/30 07:22:36;;;;;;;58.08;7.80;;;;;;;3.91;100.00;101468.03;4895501;29;20041;-75
2022/01/30 07:25:05;;;;;;;49.53;8.45;;;;;;;3.80;100.00;101466.03;4920525;29;20043;-75
2022/01/30 07:27:31;;;;;;;55.13;7.40;;;;;;;3.76;100.00;101480.09;4895799;29;20083;-75
2022/01/30 07:29:57;;;;;;;60.47;7.93;;;;;;;3.74;100.00;101470.75;4906995;29;20024;-76
2022/01/30 07:32:22;;;;;;;65.90;7.75;;;;;;;3.74;100.00;101460.38;4915588;29;20376;-75
2022/01/30 07:34:51;;;;;;;63.10;8.30;;;;;;;3.82;100.00;101489.31;4908639;29;20472;-76
2022/01/30 07:37:18;;;;;;;59.42;7.30;;;;;;;3.80;100.00;101504.13;4910525;29;20036;-76
2022/01/30 07:39:44;;;;;;;61.70;9.15;;;;;;;3.92;100.00;101492.22;4903668;29;20056;-75
2022/01/30 07:42:10;;;;;;;72.82;9.02;;;;;;;4.04;100.00;101483.78;4900496;29;20020;-75
2022/01/30 07:44:38;;;;;;;58.22;8.98;;;;;;;4.04;100.00;101510.56;4899622;29;20060;-75
2022/01/30 07:47:05;;;;;;;58.58;8.05;;;;;;;4.25;97.07;101492.94;4891030;29;20534;-75
2022/01/30 07:49:30;;;;;;;68.53;9.40;;;;;;;4.27;97.72;101492.84;4904582;29;20043;-75
2022/01/30 07:51:56;;;;;;;68.82;9.43;;;;;;;4.28;97.20;101512.72;4885633;29;20040;-75
2022/01/30 07:54:21;;;;;;;62.40;8.25;;;;;;;4.37;94.56;101516.53;4897365;29;20605;-74
2022/01/30 07:56:48;;;;;;;68.32;9.90;;;;;;;4.42;94.13;101519.72;4903432;29;20063;-75
2022/01/30 07:59:14;;;;;;;71.10;10.52;;;;;;;4.40;95.49;101543.19;4895106;29;20044;-74
2022/01/30 08:01:40;;;;;;;60.20;8.48;;;;;;;4.38;94.95;101549.41;4904432;29;20035;-75
2022/01/30 08:04:07;;;;;;;55.65;9.13;;;;;;;4.45;93.55;101537.75;4874307;29;20045;-75
2022/01/30 08:06:33;;;;;;;61.38;8.63;;;;;;;4.43;92.46;101573.38;4887713;29;20390;-75
2022/01/30 08:08:59;;;;;;;69.15;8.68;;;;;;;4.46;93.67;101562.78;4906107;29;20048;-74
2022/01/30 08:11:25;;;;;;;71.53;9.50;;;;;;;4.45;93.94;101574.94;4904122;29;20029;-75
2022/01/30 08:13:51;;;;;;;60.55;8.75;;;;;;;4.53;91.72;101565.88;4876339;29;20046;-75
2022/01/30 08:16:18;;;;;;;60.10;9.13;;;;;;;4.52;92.84;101559.00;4885394;29;20032;-75
2022/01/30 08:18:44;;;;;;;57.42;7.70;;;;;;;4.49;93.09;101583.41;4903415;29;20244;-76
2022/01/30 08:21:09;;;;;;;54.90;7.25;;;;;;;4.51;93.54;101575.53;4880755;29;20034;-76
2022/01/30 08:23:35;;;;;;;58.97;7.88;;;;;;;4.52;90.45;101601.44;4885988;29;20044;-75
2022/01/30 08:26:02;;;;;;;70.57;8.77;;;;;;;4.51;93.25;101604.94;4898706;29;20032;-74
2022/01/30 08:28:28;;;;;;;55.40;7.97;;;;;;;4.50;90.44;101598.03;4874752;29;20047;-75
2022/01/30 08:30:54;;;;;;;69.60;8.77;;;;;;;4.44;92.68;101609.63;4893935;29;20044;-75
2022/01/30 08:33:20;;;;;;;67.05;9.60;;;;;;;4.48;91.43;101615.50;4884163;29;20161;-75
2022/01/30 08:35:46;;;;;;;65.57;8.65;;;;;;;4.54;90.77;101625.56;4899696;29;20035;-75
2022/01/30 08:38:15;;;;;;;67.22;7.95;;;;;;;4.57;90.42;101638.34;4902650;29;20051;-75
2022/01/30 08:40:41;;;;;;;57.35;8.18;;;;;;;4.56;88.97;101615.91;4898678;29;20036;-74
2022/01/30 08:43:07;;;;;;;52.50;8.68;;;;;;;4.61;87.11;101644.22;4915478;29;20035;-75
2022/01/30 08:45:33;;;;;;;64.22;8.95;;;;;;;4.69;85.60;101634.25;4883211;29;20036;-77
2022/01/30 08:47:59;;;;;;;58.33;7.90;;;;;;;4.66;85.19;101630.06;4888558;29;20040;-75
2022/01/30 08:50:24;;;;;;;56.70;8.45;;;;;;;4.71;84.10;101641.94;4894391;29;20374;-75
2022/01/30 08:52:51;;;;;;;48.38;8.73;;;;;;;4.75;83.28;101652.09;4905769;29;20048;-75
2022/01/30 08:55:17;;;;;;;54.42;8.10;;;;;;;4.80;83.90;101676.09;4906872;29;20036;-75
2022/01/30 08:57:43;;;;;;;58.47;7.90;;;;;;;4.75;82.81;101672.06;4917616;29;20062;-76
2022/01/30 09:00:12;;;;;;;62.53;7.65;;;;;;;4.73;81.25;101679.06;4900534;29;20333;-76
2022/01/30 09:02:38;;;;;;;53.17;8.27;;;;;;;4.78;81.09;101687.47;4916483;29;20039;-76
2022/01/30 09:05:08;;;;;;;58.92;7.28;;;;;;;4.76;82.70;101707.50;4902471;29;20115;-76
2022/01/30 09:07:34;;;;;;;50.70;7.97;;;;;;;4.73;81.75;101697.28;4887408;29;20036;-76
2022/01/30 09:10:00;;;;;;;52.58;7.60;;;;;;;4.76;81.34;101700.53;4901201;29;20496;-76
2022/01/30 09:12:26;;;;;;;55.17;7.88;;;;;;;4.72;81.24;101690.41;4901908;29;20051;-76
2022/01/30 09:14:52;;;;;;;46.50;7.50;;;;;;;4.64;82.95;101693.44;4903251;29;20040;-75
2022/01/30 09:17:19;;;;;;;49.13;7.13;;;;;;;4.67;82.26;101708.84;4922217;29;20052;-76
2022/01/30 09:19:45;;;;;;;55.88;7.28;;;;;;;4.65;84.04;101705.50;4900336;29;20112;-77
2022/01/30 09:22:14;;;;;;;55.22;8.27;;;;;;;4.65;84.08;101702.91;4917684;29;20559;-75
2022/01/30 09:24:41;;;;;;;62.85;8.93;;;;;;;4.82;80.37;101705.41;4885835;29;20397;-75
2022/01/30 09:27:08;;;;;;;56.22;9.23;;;;;;;4.78;84.96;101698.69;4904212;29;20040;-75
2022/01/30 09:29:35;;;;;;;55.17;9.27;;;;;;;4.92;82.58;101712.72;4894774;29;20099;-76
2022/01/30 09:32:01;;;;;;;62.10;8.63;;;;;;;4.94;83.73;101713.47;4887821;29;20053;-76
2022/01/30 09:34:27;;;;;;;60.58;8.88;;;;;;;5.00;82.53;101726.94;4887806;29;20036;-74
2022/01/30 09:36:53;;;;;;;68.80;9.82;;;;;;;5.05;83.81;101709.31;4904347;29;20070;-76
2022/01/30 09:39:19;;;;;;;52.28;7.68;;;;;;;5.13;82.18;101731.47;4884871;29;20052;-74
2022/01/30 09:41:46;;;;;;;55.55;8.73;;;;;;;5.06;84.28;101729.19;4913208;29;20060;-75
2022/01/30 09:44:13;;;;;;;62.67;8.32;;;;;;;5.13;84.82;101729.69;4886912;29;20040;-77
2022/01/30 09:46:42;;;;;;;56.78;8.65;;;;;;;5.15;83.91;101750.41;4901279;29;20047;-77
2022/01/30 09:49:09;;;;;;;61.50;8.52;;;;;;;5.15;86.65;101721.81;4908397;29;20075;-75
2022/01/30 09:51:40;;;;;;;52.72;8.30;;;;;;;5.20;84.28;101738.00;4900267;29;20045;-75
2022/01/30 09:54:08;;;;;;;61.78;8.18;;;;;;;5.21;81.03;101758.69;4890357;29;20054;-76
2022/01/30 09:56:34;;;;;;;67.85;8.50;;;;;;;5.21;84.02;101742.25;4892791;29;20043;-75
2022/01/30 09:59:01;;;;;;;64.30;9.18;;;;;;;5.21;81.46;101750.06;4902761;29;20051;-76
2022/01/30 10:01:33;;;;;;;67.18;8.88;;;;;;;5.25;82.23;101773.22;4923212;29;20119;-75
2022/01/30 10:04:00;;;;;;;55.65;8.30;;;;;;;5.22;84.69;101751.75;4929264;29;20488;-75
2022/01/30 10:06:32;;;;;;;67.18;8.25;;;;;;;5.14;83.91;101762.59;4929060;29;20032;-75
2022/01/30 10:08:59;;;;;;;64.27;8.50;;;;;;;5.19;82.67;101767.53;4914985;29;20040;-75
2022/01/30 10:11:46;;;;;;;58.88;8.40;;;;;;;5.14;80.80;101751.31;4902657;29;20107;-75
2022/01/30 10:14:14;;;;;;;63.47;8.32;;;;;;;5.03;81.45;101778.78;4892212;29;20032;-75
2022/01/30 10:16:46;;;;;;;55.25;8.55;;;;;;;5.07;81.89;101769.06;4889856;29;20048;-75
2022/01/30 10:19:20;;;;;;;65.22;8.18;;;;;;;5.13;82.67;101781.72;4900042;29;20477;-75
2022/01/30 10:21:47;;;;;;;63.30;8.00;;;;;;;5.07;83.10;101790.69;4880564;29;20543;-75
2022/01/30 10:24:23;;;;;;;57.20;8.02;;;;;;;5.20;84.73;101792.63;4890023;29;20119;-75
2022/01/30 10:26:51;;;;;;;64.78;8.65;;;;;;;5.22;84.55;101796.81;4905668;29;20127;-75
2022/01/30 10:29:29;;;;;;;68.03;8.30;;;;;;;5.26;82.97;101798.31;4885573;29;20056;-75
2022/01/30 10:32:08;;;;;;;67.18;9.05;;;;;;;5.23;82.30;101805.44;4904415;29;20115;-74
2022/01/30 10:34:36;;;;;;;68.38;8.82;;;;;;;5.26;83.42;101798.31;4904784;29;20116;-75
2022/01/30 10:37:23;;;;;;;74.15;10.20;;;;;;;5.35;82.64;101790.88;4922684;29;20070;-77
2022/01/30 10:40:08;;;;;;;52.70;8.18;;;;;;;5.38;83.20;101806.34;4888575;29;20107;-76
2022/01/30 10:42:35;;;;;;;67.40;9.48;;;;;;;5.44;82.02;101809.44;4902977;29;20048;-75
2022/01/30 10:45:02;;;;;;;65.63;9.35;;;;;;;5.44;81.64;101806.84;4903601;29;20129;-76
2022/01/30 10:47:30;;;;;;;60.28;8.63;;;;;;;5.32;82.42;101817.09;4884782;29;20040;-75
2022/01/30 10:49:57;;;;;;;65.68;8.20;;;;;;;5.29;82.51;101815.50;4890963;29;20499;-75
2022/01/30 10:52:23;;;;;;;62.17;9.00;;;;;;;5.33;83.50;101818.75;4903319;29;20028;-76
2022/01/30 10:54:50;;;;;;;56.80;7.68;;;;;;;5.42;80.08;101821.69;4900011;29;20139;-76
2022/01/30 10:57:16;;;;;;;57.17;8.40;;;;;;;5.42;79.48;101821.69;4886028;29;20142;-75
2022/01/30 10:59:45;;;;;;;54.40;8.70;;;;;;;5.48;78.80;101838.72;4892652;29;20036;-75
2022/01/30 11:02:20;;;;;;;64.90;7.72;;;;;;;5.49;79.99;101824.78;4888332;29;20530;-75
2022/01/30 11:04:48;;;;;;;56.15;8.25;;;;;;;5.42;79.43;101824.28;4901588;29;20404;-75
2022/01/30 11:07:17;;;;;;;49.60;7.28;;;;;;;5.39;78.80;101836.66;4901731;29;20100;-75
2022/01/30 11:10:08;;;;;;;59.05;8.93;;;;;;;5.47;78.70;101850.88;4903425;29;20036;-76
2022/01/30 11:12:40;;;;;;;53.38;7.60;;;;;;;5.55;80.48;101837.44;4904401;29;20071;-75
2022/01/30 11:15:22;;;;;;;51.53;7.90;;;;;;;5.61;80.59;101846.66;4902921;29;20036;-76
2022/01/30 11:17:49;;;;;;;56.95;8.25;;;;;;;5.51;79.82;101853.34;4906679;29;20450;-76
2022/01/30 11:20:14;;;;;;;56.03;8.27;;;;;;;5.49;80.83;101856.00;4902704;29;20036;-77
2022/01/30 11:22:46;;;;;;;59.65;9.60;;;;;;;5.62;79.84;101877.00;4892279;29;20136;-75
2022/01/30 11:25:13;;;;;;;53.33;8.23;;;;;;;5.67;79.23;101874.97;4901322;29;20035;-75
2022/01/30 11:27:42;;;;;;;67.20;8.88;;;;;;;5.70;79.56;101869.56;4902553;29;20039;-76
2022/01/30 11:30:08;;;;;;;66.50;8.57;;;;;;;5.67;77.84;101888.00;4921690;29;20119;-76
2022/01/30 11:32:34;;;;;;;46.80;7.82;;;;;;;5.45;76.21;101883.13;4889009;29;20047;-77
2022/01/30 11:35:00;;;;;;;49.78;7.47;;;;;;;5.40;75.08;101882.53;4897478;29;20028;-75
2022/01/30 11:37:28;;;;;;;47.95;7.35;;;;;;;5.52;76.47;101884.47;4897553;29;20072;-74
2022/01/30 11:39:54;;;;;;;56.53;8.45;;;;;;;5.61;77.67;101896.97;4891790;29;20050;-75
2022/01/30 11:42:23;;;;;;;53.45;8.18;;;;;;;5.62;78.82;101892.59;4896016;29;20138;-74
2022/01/30 11:45:03;;;;;;;66.68;9.05;;;;;;;5.78;80.17;101879.53;4898914;29;20040;-76
2022/01/30 11:47:42;;;;;;;54.22;8.57;;;;;;;5.76;77.96;101897.03;4910742;29;20134;-75
2022/01/30 11:50:10;;;;;;;58.38;8.13;;;;;;;5.87;79.59;101893.81;4896875;29;20192;-75
2022/01/30 11:52:45;;;;;;;61.45;7.45;;;;;;;5.66;73.96;101874.13;4889619;29;20620;-74
2022/01/30 11:55:54;;;;;;;49.47;7.30;;;;;;;5.80;77.51;101885.50;4913365;29;20112;-75
2022/01/30 11:58:32;;;;;;;52.72;7.18;;;;;;;5.97;78.84;101885.44;4883762;29;20497;-75
2022/01/30 12:00:59;;;;;;;49.30;7.55;;;;;;;5.95;75.26;101847.34;4891739;29;20559;-75
2022/01/30 12:03:27;;;;;;;49.38;6.68;;;;;;;5.95;74.43;101883.78;4898188;29;20063;-75
2022/01/30 12:05:55;;;;;;;46.70;7.22;;;;;;;5.93;73.89;101896.06;4898521;29;20131;-75
2022/01/30 12:08:48;;;;;;;53.88;7.57;;;;;;;5.91;71.22;101897.91;4896341;29;20036;-75
2022/01/30 12:11:39;;;;;;;48.70;7.15;;;;;;;5.96;75.94;101895.94;4889941;29;20408;-74
2022/01/30 12:14:43;;;;;;;45.65;6.75;;;;;;;5.92;78.08;101897.84;4897456;29;20048;-74
2022/01/30 12:17:08;;;;;;;;;;;;;;;5.96;77.27;101911.56;4883353;29;20055;-75
2022/01/30 12:19:34;;;;;;;56.35;7.82;;;;;;;5.91;77.88;101905.72;4915319;29;19978;-76